sensor_id;sensor_type;location;lat;lon;timestamp;P1;durP1;ratioP1;P2;durP2;ratioP2
22064;SDS011;11197;53.110;8.468;2023-07-09T00:01:18;11.88;;;5.70;;
22064;SDS011;11197;53.110;8.468;2023-07-09T00:03:44;6.40;;;5.05;;
22064;SDS011;11197;53.110;8.468;2023-07-09T00:06:13;7.73;;;5.33;;
22064;SDS011;11197;53.110;8.468;2023-07-09T00:08:41;8.02;;;5.68;;
22064;SDS011;11197;53.110;8.468;2023-07-09T00:11:09;7.35;;;5.55;;
22064;SDS011;11197;53.110;8.468;2023-07-09T00:13:35;6.90;;;5.30;;
22064;SDS011;11197;53.110;8.468;2023-07-09T00:16:03;9.02;;;5.97;;
22064;SDS011;11197;53.110;8.468;2023-07-09T00:18:36;7.00;;;5.60;;
22064;SDS011;11197;53.110;8.468;2023-07-09T00:21:02;7.18;;;5.40;;
22064;SDS011;11197;53.110;8.468;2023-07-09T00:23:28;8.43;;;5.68;;
22064;SDS011;11197;53.110;8.468;2023-07-09T00:25:55;8.05;;;5.60;;
22064;SDS011;11197;53.110;8.468;2023-07-09T00:28:20;8.45;;;5.68;;
22064;SDS011;11197;53.110;8.468;2023-07-09T00:30:47;6.95;;;5.45;;
22064;SDS011;11197;53.110;8.468;2023-07-09T00:33:14;8.35;;;5.68;;
22064;SDS011;11197;53.110;8.468;2023-07-09T00:35:41;8.13;;;5.75;;
22064;SDS011;11197;53.110;8.468;2023-07-09T00:38:18;7.97;;;5.88;;
22064;SDS011;11197;53.110;8.468;2023-07-09T00:40:47;6.88;;;5.65;;
22064;SDS011;11197;53.110;8.468;2023-07-09T00:43:24;6.85;;;6.07;;
22064;SDS011;11197;53.110;8.468;2023-07-09T00:48:55;8.30;;;5.70;;
22064;SDS011;11197;53.110;8.468;2023-07-09T00:51:24;7.45;;;6.07;;
22064;SDS011;11197;53.110;8.468;2023-07-09T00:53:53;6.55;;;5.70;;
22064;SDS011;11197;53.110;8.468;2023-07-09T00:56:27;7.78;;;5.72;;
22064;SDS011;11197;53.110;8.468;2023-07-09T00:59:17;10.95;;;6.15;;
22064;SDS011;11197;53.110;8.468;2023-07-09T01:04:15;8.10;;;6.00;;
22064;SDS011;11197;53.110;8.468;2023-07-09T01:06:53;8.00;;;6.13;;
22064;SDS011;11197;53.110;8.468;2023-07-09T01:09:22;7.18;;;5.75;;
22064;SDS011;11197;53.110;8.468;2023-07-09T01:11:48;7.65;;;6.13;;
22064;SDS011;11197;53.110;8.468;2023-07-09T01:14:16;7.53;;;6.25;;
22064;SDS011;11197;53.110;8.468;2023-07-09T01:16:49;9.68;;;6.15;;
22064;SDS011;11197;53.110;8.468;2023-07-09T01:19:26;8.95;;;6.15;;
22064;SDS011;11197;53.110;8.468;2023-07-09T01:21:57;7.75;;;6.13;;
22064;SDS011;11197;53.110;8.468;2023-07-09T01:27:12;10.02;;;6.10;;
22064;SDS011;11197;53.110;8.468;2023-07-09T01:29:38;6.85;;;6.15;;
22064;SDS011;11197;53.110;8.468;2023-07-09T01:32:07;7.97;;;6.38;;
22064;SDS011;11197;53.110;8.468;2023-07-09T01:34:33;7.03;;;5.90;;
22064;SDS011;11197;53.110;8.468;2023-07-09T01:36:59;9.02;;;5.93;;
22064;SDS011;11197;53.110;8.468;2023-07-09T01:39:28;10.45;;;5.65;;
22064;SDS011;11197;53.110;8.468;2023-07-09T01:41:55;11.02;;;6.40;;
22064;SDS011;11197;53.110;8.468;2023-07-09T01:44:22;8.77;;;6.22;;
22064;SDS011;11197;53.110;8.468;2023-07-09T01:46:48;8.43;;;6.18;;
22064;SDS011;11197;53.110;8.468;2023-07-09T01:49:13;7.10;;;5.97;;
22064;SDS011;11197;53.110;8.468;2023-07-09T01:51:40;8.65;;;6.10;;
22064;SDS011;11197;53.110;8.468;2023-07-09T01:54:06;6.90;;;6.18;;
22064;SDS011;11197;53.110;8.468;2023-07-09T01:56:34;8.82;;;6.65;;
22064;SDS011;11197;53.110;8.468;2023-07-09T01:59:04;8.20;;;6.13;;
22064;SDS011;11197;53.110;8.468;2023-07-09T02:01:31;9.85;;;6.55;;
22064;SDS011;11197;53.110;8.468;2023-07-09T02:04:12;7.88;;;6.38;;
22064;SDS011;11197;53.110;8.468;2023-07-09T02:06:43;7.45;;;6.15;;
22064;SDS011;11197;53.110;8.468;2023-07-09T02:09:08;9.15;;;6.28;;
22064;SDS011;11197;53.110;8.468;2023-07-09T02:11:34;9.50;;;6.15;;
22064;SDS011;11197;53.110;8.468;2023-07-09T02:14:00;8.73;;;6.15;;
22064;SDS011;11197;53.110;8.468;2023-07-09T02:16:26;6.72;;;6.03;;
22064;SDS011;11197;53.110;8.468;2023-07-09T02:18:51;7.07;;;6.32;;
22064;SDS011;11197;53.110;8.468;2023-07-09T02:21:17;8.43;;;6.18;;
22064;SDS011;11197;53.110;8.468;2023-07-09T02:23:43;9.10;;;6.60;;
22064;SDS011;11197;53.110;8.468;2023-07-09T02:26:08;8.55;;;6.65;;
22064;SDS011;11197;53.110;8.468;2023-07-09T02:28:35;9.45;;;6.75;;
22064;SDS011;11197;53.110;8.468;2023-07-09T02:31:00;9.18;;;6.60;;
22064;SDS011;11197;53.110;8.468;2023-07-09T02:33:26;9.10;;;6.82;;
22064;SDS011;11197;53.110;8.468;2023-07-09T02:35:51;7.72;;;6.30;;
22064;SDS011;11197;53.110;8.468;2023-07-09T02:38:18;9.00;;;6.70;;
22064;SDS011;11197;53.110;8.468;2023-07-09T02:40:45;8.88;;;6.70;;
22064;SDS011;11197;53.110;8.468;2023-07-09T02:43:11;8.07;;;6.10;;
22064;SDS011;11197;53.110;8.468;2023-07-09T02:45:38;7.95;;;6.90;;
22064;SDS011;11197;53.110;8.468;2023-07-09T02:48:04;8.45;;;6.60;;
22064;SDS011;11197;53.110;8.468;2023-07-09T02:50:35;7.93;;;6.22;;
22064;SDS011;11197;53.110;8.468;2023-07-09T04:01:22;8.38;;;6.85;;
22064;SDS011;11197;53.110;8.468;2023-07-09T04:03:48;7.35;;;6.43;;
22064;SDS011;11197;53.110;8.468;2023-07-09T04:06:14;7.05;;;6.35;;
22064;SDS011;11197;53.110;8.468;2023-07-09T04:08:39;7.68;;;6.65;;
22064;SDS011;11197;53.110;8.468;2023-07-09T04:11:05;7.38;;;6.63;;
22064;SDS011;11197;53.110;8.468;2023-07-09T04:13:31;9.02;;;6.95;;
22064;SDS011;11197;53.110;8.468;2023-07-09T04:15:57;9.30;;;6.72;;
22064;SDS011;11197;53.110;8.468;2023-07-09T04:18:23;8.32;;;7.10;;
22064;SDS011;11197;53.110;8.468;2023-07-09T04:20:49;7.75;;;6.95;;
22064;SDS011;11197;53.110;8.468;2023-07-09T04:23:16;8.68;;;6.78;;
22064;SDS011;11197;53.110;8.468;2023-07-09T04:25:42;7.60;;;6.80;;
22064;SDS011;11197;53.110;8.468;2023-07-09T04:28:08;8.73;;;6.82;;
22064;SDS011;11197;53.110;8.468;2023-07-09T04:30:34;10.02;;;6.85;;
22064;SDS011;11197;53.110;8.468;2023-07-09T04:32:59;7.95;;;7.15;;
22064;SDS011;11197;53.110;8.468;2023-07-09T04:35:25;7.63;;;6.82;;
22064;SDS011;11197;53.110;8.468;2023-07-09T04:37:51;9.07;;;7.22;;
22064;SDS011;11197;53.110;8.468;2023-07-09T04:40:17;9.23;;;7.22;;
22064;SDS011;11197;53.110;8.468;2023-07-09T04:42:44;8.85;;;7.53;;
22064;SDS011;11197;53.110;8.468;2023-07-09T04:45:10;7.93;;;7.10;;
22064;SDS011;11197;53.110;8.468;2023-07-09T04:47:37;9.40;;;6.90;;
22064;SDS011;11197;53.110;8.468;2023-07-09T04:50:03;8.13;;;7.05;;
22064;SDS011;11197;53.110;8.468;2023-07-09T04:52:30;8.82;;;6.90;;
22064;SDS011;11197;53.110;8.468;2023-07-09T04:54:56;8.70;;;7.05;;
22064;SDS011;11197;53.110;8.468;2023-07-09T04:57:23;8.70;;;7.20;;
22064;SDS011;11197;53.110;8.468;2023-07-09T04:59:49;9.40;;;7.28;;
22064;SDS011;11197;53.110;8.468;2023-07-09T05:02:15;9.68;;;6.90;;
22064;SDS011;11197;53.110;8.468;2023-07-09T05:04:41;8.40;;;7.05;;
22064;SDS011;11197;53.110;8.468;2023-07-09T05:07:07;9.77;;;7.32;;
22064;SDS011;11197;53.110;8.468;2023-07-09T05:09:32;9.32;;;7.88;;
22064;SDS011;11197;53.110;8.468;2023-07-09T05:11:59;9.15;;;7.05;;
22064;SDS011;11197;53.110;8.468;2023-07-09T05:14:25;10.00;;;7.07;;
22064;SDS011;11197;53.110;8.468;2023-07-09T05:16:52;8.43;;;7.03;;
22064;SDS011;11197;53.110;8.468;2023-07-09T05:19:18;10.05;;;7.35;;
22064;SDS011;11197;53.110;8.468;2023-07-09T05:21:44;9.80;;;6.95;;
22064;SDS011;11197;53.110;8.468;2023-07-09T05:24:10;9.35;;;7.03;;
22064;SDS011;11197;53.110;8.468;2023-07-09T05:26:35;7.60;;;6.60;;
22064;SDS011;11197;53.110;8.468;2023-07-09T05:29:02;8.63;;;6.95;;
22064;SDS011;11197;53.110;8.468;2023-07-09T05:31:29;9.55;;;6.80;;
22064;SDS011;11197;53.110;8.468;2023-07-09T05:33:55;8.70;;;7.05;;
22064;SDS011;11197;53.110;8.468;2023-07-09T05:36:21;7.93;;;7.00;;
22064;SDS011;11197;53.110;8.468;2023-07-09T05:38:47;9.13;;;6.93;;
22064;SDS011;11197;53.110;8.468;2023-07-09T05:41:13;9.35;;;6.93;;
22064;SDS011;11197;53.110;8.468;2023-07-09T05:43:41;8.35;;;7.28;;
22064;SDS011;11197;53.110;8.468;2023-07-09T05:46:09;9.73;;;7.38;;
22064;SDS011;11197;53.110;8.468;2023-07-09T05:48:35;10.15;;;6.80;;
22064;SDS011;11197;53.110;8.468;2023-07-09T05:51:01;8.63;;;6.93;;
22064;SDS011;11197;53.110;8.468;2023-07-09T05:53:27;10.02;;;6.63;;
22064;SDS011;11197;53.110;8.468;2023-07-09T05:55:53;9.18;;;6.90;;
22064;SDS011;11197;53.110;8.468;2023-07-09T05:58:20;8.38;;;6.45;;
22064;SDS011;11197;53.110;8.468;2023-07-09T06:00:49;7.15;;;6.18;;
22064;SDS011;11197;53.110;8.468;2023-07-09T06:03:19;9.70;;;6.20;;
22064;SDS011;11197;53.110;8.468;2023-07-09T06:05:46;9.55;;;6.35;;
22064;SDS011;11197;53.110;8.468;2023-07-09T06:08:18;8.50;;;6.43;;
22064;SDS011;11197;53.110;8.468;2023-07-09T06:10:56;6.82;;;6.00;;
22064;SDS011;11197;53.110;8.468;2023-07-09T06:13:24;9.15;;;6.05;;
22064;SDS011;11197;53.110;8.468;2023-07-09T06:15:50;7.65;;;6.30;;
22064;SDS011;11197;53.110;8.468;2023-07-09T06:18:20;7.80;;;5.85;;
22064;SDS011;11197;53.110;8.468;2023-07-09T06:20:50;7.93;;;5.93;;
22064;SDS011;11197;53.110;8.468;2023-07-09T06:23:19;9.05;;;6.60;;
22064;SDS011;11197;53.110;8.468;2023-07-09T06:25:45;7.95;;;6.20;;
22064;SDS011;11197;53.110;8.468;2023-07-09T06:28:16;8.77;;;6.30;;
22064;SDS011;11197;53.110;8.468;2023-07-09T06:30:46;8.23;;;6.07;;
22064;SDS011;11197;53.110;8.468;2023-07-09T06:33:13;6.75;;;6.00;;
22064;SDS011;11197;53.110;8.468;2023-07-09T06:35:45;7.88;;;6.38;;
22064;SDS011;11197;53.110;8.468;2023-07-09T06:38:12;7.57;;;5.88;;
22064;SDS011;11197;53.110;8.468;2023-07-09T06:40:38;9.50;;;5.90;;
22064;SDS011;11197;53.110;8.468;2023-07-09T06:43:04;9.02;;;5.80;;
22064;SDS011;11197;53.110;8.468;2023-07-09T06:45:38;9.70;;;5.88;;
22064;SDS011;11197;53.110;8.468;2023-07-09T06:48:04;7.50;;;5.82;;
22064;SDS011;11197;53.110;8.468;2023-07-09T06:50:34;7.50;;;5.28;;
22064;SDS011;11197;53.110;8.468;2023-07-09T06:53:00;9.25;;;5.88;;
22064;SDS011;11197;53.110;8.468;2023-07-09T06:55:26;8.43;;;5.90;;
22064;SDS011;11197;53.110;8.468;2023-07-09T06:57:51;8.32;;;5.38;;
22064;SDS011;11197;53.110;8.468;2023-07-09T07:00:17;8.00;;;5.22;;
22064;SDS011;11197;53.110;8.468;2023-07-09T07:02:44;7.65;;;5.68;;
22064;SDS011;11197;53.110;8.468;2023-07-09T07:05:09;7.85;;;5.53;;
22064;SDS011;11197;53.110;8.468;2023-07-09T07:07:35;8.20;;;5.65;;
22064;SDS011;11197;53.110;8.468;2023-07-09T07:10:01;8.90;;;5.30;;
22064;SDS011;11197;53.110;8.468;2023-07-09T07:12:29;7.10;;;5.15;;
22064;SDS011;11197;53.110;8.468;2023-07-09T07:15:06;7.82;;;5.40;;
22064;SDS011;11197;53.110;8.468;2023-07-09T07:17:32;7.25;;;6.10;;
22064;SDS011;11197;53.110;8.468;2023-07-09T07:19:58;8.13;;;5.25;;
22064;SDS011;11197;53.110;8.468;2023-07-09T07:22:24;6.95;;;5.50;;
22064;SDS011;11197;53.110;8.468;2023-07-09T07:24:50;8.43;;;5.90;;
22064;SDS011;11197;53.110;8.468;2023-07-09T07:27:16;9.63;;;5.60;;
22064;SDS011;11197;53.110;8.468;2023-07-09T07:29:41;9.55;;;5.60;;
22064;SDS011;11197;53.110;8.468;2023-07-09T07:32:07;9.98;;;5.40;;
22064;SDS011;11197;53.110;8.468;2023-07-09T07:34:33;7.07;;;5.63;;
22064;SDS011;11197;53.110;8.468;2023-07-09T07:37:00;7.70;;;5.68;;
22064;SDS011;11197;53.110;8.468;2023-07-09T07:39:25;7.80;;;5.47;;
22064;SDS011;11197;53.110;8.468;2023-07-09T07:41:51;7.05;;;5.55;;
22064;SDS011;11197;53.110;8.468;2023-07-09T07:44:17;8.57;;;5.22;;
22064;SDS011;11197;53.110;8.468;2023-07-09T07:46:43;7.93;;;5.80;;
22064;SDS011;11197;53.110;8.468;2023-07-09T07:49:10;6.78;;;4.95;;
22064;SDS011;11197;53.110;8.468;2023-07-09T07:51:35;8.68;;;5.47;;
22064;SDS011;11197;53.110;8.468;2023-07-09T07:54:02;7.70;;;5.70;;
22064;SDS011;11197;53.110;8.468;2023-07-09T07:56:28;8.32;;;5.47;;
22064;SDS011;11197;53.110;8.468;2023-07-09T07:58:54;8.77;;;5.38;;
22064;SDS011;11197;53.110;8.468;2023-07-09T08:01:19;9.32;;;5.75;;
22064;SDS011;11197;53.110;8.468;2023-07-09T08:03:45;6.97;;;5.25;;
22064;SDS011;11197;53.110;8.468;2023-07-09T08:06:12;7.47;;;5.50;;
22064;SDS011;11197;53.110;8.468;2023-07-09T08:08:37;7.63;;;5.57;;
22064;SDS011;11197;53.110;8.468;2023-07-09T08:11:05;9.32;;;5.50;;
22064;SDS011;11197;53.110;8.468;2023-07-09T08:13:36;10.48;;;5.80;;
22064;SDS011;11197;53.110;8.468;2023-07-09T08:16:03;8.80;;;5.30;;
22064;SDS011;11197;53.110;8.468;2023-07-09T08:18:32;8.82;;;5.40;;
22064;SDS011;11197;53.110;8.468;2023-07-09T08:20:58;7.28;;;5.53;;
22064;SDS011;11197;53.110;8.468;2023-07-09T08:23:24;8.27;;;5.43;;
22064;SDS011;11197;53.110;8.468;2023-07-09T08:25:57;5.95;;;5.35;;
22064;SDS011;11197;53.110;8.468;2023-07-09T08:28:24;6.93;;;5.45;;
22064;SDS011;11197;53.110;8.468;2023-07-09T08:30:53;8.70;;;5.65;;
22064;SDS011;11197;53.110;8.468;2023-07-09T08:33:20;7.20;;;5.53;;
22064;SDS011;11197;53.110;8.468;2023-07-09T08:35:50;6.95;;;5.70;;
22064;SDS011;11197;53.110;8.468;2023-07-09T08:38:17;6.05;;;5.45;;
22064;SDS011;11197;53.110;8.468;2023-07-09T08:40:49;9.13;;;5.35;;
22064;SDS011;11197;53.110;8.468;2023-07-09T08:43:36;7.20;;;5.50;;
22064;SDS011;11197;53.110;8.468;2023-07-09T08:49:01;8.40;;;5.50;;
22064;SDS011;11197;53.110;8.468;2023-07-09T08:54:04;8.35;;;5.25;;
22064;SDS011;11197;53.110;8.468;2023-07-09T08:56:50;11.30;;;5.53;;
22064;SDS011;11197;53.110;8.468;2023-07-09T08:59:16;7.47;;;5.32;;
22064;SDS011;11197;53.110;8.468;2023-07-09T09:01:50;7.50;;;5.55;;
22064;SDS011;11197;53.110;8.468;2023-07-09T09:10:04;8.15;;;5.30;;
22064;SDS011;11197;53.110;8.468;2023-07-09T09:12:38;7.70;;;5.00;;
22064;SDS011;11197;53.110;8.468;2023-07-09T09:15:17;7.22;;;5.55;;
22064;SDS011;11197;53.110;8.468;2023-07-09T09:17:44;7.90;;;5.00;;
22064;SDS011;11197;53.110;8.468;2023-07-09T09:20:16;8.23;;;5.22;;
22064;SDS011;11197;53.110;8.468;2023-07-09T09:22:53;8.52;;;5.57;;
22064;SDS011;11197;53.110;8.468;2023-07-09T09:25:27;9.17;;;5.20;;
22064;SDS011;11197;53.110;8.468;2023-07-09T09:27:55;10.00;;;5.30;;
22064;SDS011;11197;53.110;8.468;2023-07-09T09:30:21;7.50;;;5.43;;
22064;SDS011;11197;53.110;8.468;2023-07-09T09:35:43;8.27;;;5.50;;
22064;SDS011;11197;53.110;8.468;2023-07-09T09:38:17;7.13;;;5.30;;
22064;SDS011;11197;53.110;8.468;2023-07-09T09:40:44;7.70;;;5.22;;
22064;SDS011;11197;53.110;8.468;2023-07-09T09:43:12;6.57;;;5.20;;
22064;SDS011;11197;53.110;8.468;2023-07-09T09:45:44;8.68;;;5.30;;
22064;SDS011;11197;53.110;8.468;2023-07-09T09:48:20;8.27;;;5.13;;
22064;SDS011;11197;53.110;8.468;2023-07-09T09:50:53;8.32;;;5.47;;
22064;SDS011;11197;53.110;8.468;2023-07-09T09:53:21;9.57;;;5.22;;
22064;SDS011;11197;53.110;8.468;2023-07-09T09:55:50;7.43;;;5.32;;
22064;SDS011;11197;53.110;8.468;2023-07-09T09:58:17;8.25;;;5.38;;
22064;SDS011;11197;53.110;8.468;2023-07-09T10:00:51;6.53;;;5.10;;
22064;SDS011;11197;53.110;8.468;2023-07-09T10:03:18;6.95;;;5.10;;
22064;SDS011;11197;53.110;8.468;2023-07-09T10:05:48;7.22;;;5.25;;
22064;SDS011;11197;53.110;8.468;2023-07-09T10:08:22;6.50;;;5.40;;
22064;SDS011;11197;53.110;8.468;2023-07-09T10:11:04;7.40;;;5.38;;
22064;SDS011;11197;53.110;8.468;2023-07-09T10:13:43;7.80;;;5.15;;
22064;SDS011;11197;53.110;8.468;2023-07-09T10:16:21;8.13;;;5.32;;
22064;SDS011;11197;53.110;8.468;2023-07-09T10:19:02;11.77;;;5.22;;
22064;SDS011;11197;53.110;8.468;2023-07-09T10:22:24;10.60;;;5.25;;
22064;SDS011;11197;53.110;8.468;2023-07-09T10:24:51;8.07;;;4.93;;
22064;SDS011;11197;53.110;8.468;2023-07-09T10:33:10;8.52;;;4.95;;
22064;SDS011;11197;53.110;8.468;2023-07-09T10:38:22;6.47;;;5.10;;
22064;SDS011;11197;53.110;8.468;2023-07-09T10:41:06;6.88;;;5.10;;
22064;SDS011;11197;53.110;8.468;2023-07-09T10:43:42;6.43;;;5.03;;
22064;SDS011;11197;53.110;8.468;2023-07-09T10:46:13;7.80;;;5.40;;
22064;SDS011;11197;53.110;8.468;2023-07-09T10:48:46;8.25;;;5.32;;
22064;SDS011;11197;53.110;8.468;2023-07-09T10:51:28;8.23;;;5.57;;
22064;SDS011;11197;53.110;8.468;2023-07-09T10:53:59;8.38;;;5.13;;
22064;SDS011;11197;53.110;8.468;2023-07-09T10:56:47;9.00;;;5.15;;
22064;SDS011;11197;53.110;8.468;2023-07-09T10:59:25;9.80;;;5.15;;
22064;SDS011;11197;53.110;8.468;2023-07-09T11:01:58;8.38;;;5.00;;
22064;SDS011;11197;53.110;8.468;2023-07-09T11:04:48;7.78;;;5.15;;
22064;SDS011;11197;53.110;8.468;2023-07-09T11:07:20;7.50;;;5.22;;
22064;SDS011;11197;53.110;8.468;2023-07-09T11:09:59;9.15;;;4.93;;
22064;SDS011;11197;53.110;8.468;2023-07-09T11:15:00;9.38;;;5.47;;
22064;SDS011;11197;53.110;8.468;2023-07-09T11:17:29;8.93;;;5.07;;
22064;SDS011;11197;53.110;8.468;2023-07-09T11:19:56;9.40;;;5.32;;
22064;SDS011;11197;53.110;8.468;2023-07-09T11:22:35;7.82;;;5.18;;
22064;SDS011;11197;53.110;8.468;2023-07-09T11:25:06;7.55;;;4.93;;
22064;SDS011;11197;53.110;8.468;2023-07-09T11:27:54;8.85;;;5.30;;
22064;SDS011;11197;53.110;8.468;2023-07-09T11:30:28;8.15;;;5.38;;
22064;SDS011;11197;53.110;8.468;2023-07-09T11:33:01;6.88;;;5.45;;
22064;SDS011;11197;53.110;8.468;2023-07-09T11:35:29;10.93;;;5.10;;
22064;SDS011;11197;53.110;8.468;2023-07-09T11:38:22;8.27;;;5.60;;
22064;SDS011;11197;53.110;8.468;2023-07-09T11:40:53;6.57;;;5.50;;
22064;SDS011;11197;53.110;8.468;2023-07-09T11:43:34;10.68;;;5.32;;
22064;SDS011;11197;53.110;8.468;2023-07-09T11:46:20;6.38;;;5.00;;
22064;SDS011;11197;53.110;8.468;2023-07-09T11:48:51;11.50;;;5.47;;
22064;SDS011;11197;53.110;8.468;2023-07-09T11:51:37;7.00;;;5.38;;
22064;SDS011;11197;53.110;8.468;2023-07-09T11:54:13;7.70;;;5.50;;
22064;SDS011;11197;53.110;8.468;2023-07-09T11:56:39;7.15;;;4.97;;
22064;SDS011;11197;53.110;8.468;2023-07-09T11:59:05;10.88;;;5.30;;
22064;SDS011;11197;53.110;8.468;2023-07-09T12:01:44;7.32;;;5.05;;
22064;SDS011;11197;53.110;8.468;2023-07-09T12:04:15;9.23;;;5.60;;
22064;SDS011;11197;53.110;8.468;2023-07-09T12:06:42;7.60;;;5.40;;
22064;SDS011;11197;53.110;8.468;2023-07-09T12:09:19;8.63;;;5.07;;
22064;SDS011;11197;53.110;8.468;2023-07-09T12:11:47;5.95;;;4.85;;
22064;SDS011;11197;53.110;8.468;2023-07-09T12:14:15;6.85;;;5.20;;
22064;SDS011;11197;53.110;8.468;2023-07-09T12:16:46;7.40;;;5.10;;
22064;SDS011;11197;53.110;8.468;2023-07-09T12:19:15;5.40;;;4.72;;
22064;SDS011;11197;53.110;8.468;2023-07-09T12:21:44;7.65;;;5.00;;
22064;SDS011;11197;53.110;8.468;2023-07-09T12:24:20;5.72;;;4.75;;
22064;SDS011;11197;53.110;8.468;2023-07-09T12:26:53;6.22;;;4.60;;
22064;SDS011;11197;53.110;8.468;2023-07-09T12:29:27;9.80;;;4.95;;
22064;SDS011;11197;53.110;8.468;2023-07-09T12:31:57;6.63;;;4.90;;
22064;SDS011;11197;53.110;8.468;2023-07-09T12:34:30;6.55;;;5.20;;
22064;SDS011;11197;53.110;8.468;2023-07-09T12:36:57;6.38;;;5.20;;
22064;SDS011;11197;53.110;8.468;2023-07-09T12:39:27;9.73;;;5.07;;
22064;SDS011;11197;53.110;8.468;2023-07-09T12:41:56;6.50;;;5.05;;
22064;SDS011;11197;53.110;8.468;2023-07-09T12:44:25;8.13;;;4.93;;
22064;SDS011;11197;53.110;8.468;2023-07-09T12:46:53;7.43;;;4.78;;
22064;SDS011;11197;53.110;8.468;2023-07-09T12:49:23;10.18;;;5.05;;
22064;SDS011;11197;53.110;8.468;2023-07-09T12:51:51;7.65;;;4.95;;
22064;SDS011;11197;53.110;8.468;2023-07-09T12:54:20;6.70;;;5.10;;
22064;SDS011;11197;53.110;8.468;2023-07-09T12:56:55;7.60;;;5.00;;
22064;SDS011;11197;53.110;8.468;2023-07-09T12:59:28;6.70;;;5.15;;
22064;SDS011;11197;53.110;8.468;2023-07-09T13:04:45;8.93;;;5.20;;
22064;SDS011;11197;53.110;8.468;2023-07-09T13:07:46;6.13;;;5.05;;
22064;SDS011;11197;53.110;8.468;2023-07-09T13:13:05;7.32;;;4.97;;
22064;SDS011;11197;53.110;8.468;2023-07-09T13:15:39;9.45;;;5.38;;
22064;SDS011;11197;53.110;8.468;2023-07-09T13:18:09;7.90;;;5.65;;
22064;SDS011;11197;53.110;8.468;2023-07-09T13:20:46;7.43;;;5.75;;
22064;SDS011;11197;53.110;8.468;2023-07-09T13:23:17;9.45;;;5.80;;
22064;SDS011;11197;53.110;8.468;2023-07-09T13:25:44;6.18;;;5.40;;
22064;SDS011;11197;53.110;8.468;2023-07-09T13:28:23;6.30;;;5.60;;
22064;SDS011;11197;53.110;8.468;2023-07-09T13:30:52;6.78;;;6.05;;
22064;SDS011;11197;53.110;8.468;2023-07-09T13:33:22;8.68;;;5.78;;
22064;SDS011;11197;53.110;8.468;2023-07-09T13:35:48;10.05;;;5.97;;
22064;SDS011;11197;53.110;8.468;2023-07-09T13:38:18;6.85;;;5.88;;
22064;SDS011;11197;53.110;8.468;2023-07-09T13:40:46;8.50;;;5.85;;
22064;SDS011;11197;53.110;8.468;2023-07-09T13:43:14;6.70;;;5.60;;
22064;SDS011;11197;53.110;8.468;2023-07-09T13:45:44;7.85;;;6.03;;
22064;SDS011;11197;53.110;8.468;2023-07-09T13:48:14;8.00;;;5.85;;
22064;SDS011;11197;53.110;8.468;2023-07-09T13:50:43;9.43;;;5.47;;
22064;SDS011;11197;53.110;8.468;2023-07-09T13:53:12;7.32;;;5.63;;
22064;SDS011;11197;53.110;8.468;2023-07-09T13:55:49;7.07;;;5.55;;
22064;SDS011;11197;53.110;8.468;2023-07-09T13:58:16;6.95;;;5.60;;
22064;SDS011;11197;53.110;8.468;2023-07-09T14:00:44;7.70;;;5.25;;
22064;SDS011;11197;53.110;8.468;2023-07-09T14:05:44;9.15;;;5.70;;
22064;SDS011;11197;53.110;8.468;2023-07-09T14:08:11;7.72;;;5.75;;
22064;SDS011;11197;53.110;8.468;2023-07-09T14:10:36;6.25;;;5.40;;
22064;SDS011;11197;53.110;8.468;2023-07-09T14:13:02;8.10;;;5.15;;
22064;SDS011;11197;53.110;8.468;2023-07-09T14:15:29;7.00;;;5.05;;
22064;SDS011;11197;53.110;8.468;2023-07-09T14:17:55;7.32;;;5.00;;
22064;SDS011;11197;53.110;8.468;2023-07-09T14:20:21;10.02;;;5.18;;
22064;SDS011;11197;53.110;8.468;2023-07-09T14:22:48;6.88;;;4.65;;
22064;SDS011;11197;53.110;8.468;2023-07-09T14:25:17;5.55;;;4.68;;
22064;SDS011;11197;53.110;8.468;2023-07-09T14:27:44;10.02;;;5.30;;
22064;SDS011;11197;53.110;8.468;2023-07-09T14:30:13;7.10;;;5.00;;
22064;SDS011;11197;53.110;8.468;2023-07-09T14:32:40;8.85;;;5.13;;
22064;SDS011;11197;53.110;8.468;2023-07-09T14:37:38;9.05;;;4.85;;
22064;SDS011;11197;53.110;8.468;2023-07-09T14:40:04;6.55;;;5.03;;
22064;SDS011;11197;53.110;8.468;2023-07-09T14:42:31;6.55;;;4.93;;
22064;SDS011;11197;53.110;8.468;2023-07-09T14:44:57;7.38;;;5.30;;
22064;SDS011;11197;53.110;8.468;2023-07-09T14:47:22;7.85;;;5.28;;
22064;SDS011;11197;53.110;8.468;2023-07-09T14:49:49;7.10;;;5.35;;
22064;SDS011;11197;53.110;8.468;2023-07-09T14:52:19;7.85;;;5.15;;
22064;SDS011;11197;53.110;8.468;2023-07-09T14:54:48;7.05;;;4.95;;
22064;SDS011;11197;53.110;8.468;2023-07-09T14:57:21;6.80;;;5.20;;
22064;SDS011;11197;53.110;8.468;2023-07-09T14:59:49;6.90;;;5.20;;
22064;SDS011;11197;53.110;8.468;2023-07-09T15:02:20;5.78;;;5.18;;
22064;SDS011;11197;53.110;8.468;2023-07-09T15:04:56;9.27;;;5.10;;
22064;SDS011;11197;53.110;8.468;2023-07-09T15:07:22;7.57;;;5.05;;
22064;SDS011;11197;53.110;8.468;2023-07-09T15:09:47;5.63;;;4.80;;
22064;SDS011;11197;53.110;8.468;2023-07-09T15:12:19;5.35;;;4.57;;
22064;SDS011;11197;53.110;8.468;2023-07-09T15:14:50;7.30;;;5.20;;
22064;SDS011;11197;53.110;8.468;2023-07-09T15:17:16;6.45;;;4.55;;
22064;SDS011;11197;53.110;8.468;2023-07-09T15:19:42;9.35;;;5.07;;
22064;SDS011;11197;53.110;8.468;2023-07-09T15:22:14;7.03;;;4.90;;
22064;SDS011;11197;53.110;8.468;2023-07-09T15:24:57;7.50;;;4.30;;
22064;SDS011;11197;53.110;8.468;2023-07-09T15:27:22;6.95;;;4.68;;
22064;SDS011;11197;53.110;8.468;2023-07-09T15:29:49;5.65;;;4.50;;
22064;SDS011;11197;53.110;8.468;2023-07-09T15:32:15;8.00;;;4.75;;
22064;SDS011;11197;53.110;8.468;2023-07-09T15:34:41;5.95;;;4.47;;
22064;SDS011;11197;53.110;8.468;2023-07-09T15:37:13;5.85;;;4.40;;
22064;SDS011;11197;53.110;8.468;2023-07-09T15:39:41;8.18;;;4.65;;
22064;SDS011;11197;53.110;8.468;2023-07-09T15:42:11;7.63;;;4.93;;
22064;SDS011;11197;53.110;8.468;2023-07-09T15:44:38;8.45;;;4.57;;
22064;SDS011;11197;53.110;8.468;2023-07-09T15:47:04;6.97;;;4.55;;
22064;SDS011;11197;53.110;8.468;2023-07-09T15:49:31;7.30;;;4.72;;
22064;SDS011;11197;53.110;8.468;2023-07-09T15:51:57;9.18;;;4.80;;
22064;SDS011;11197;53.110;8.468;2023-07-09T15:54:23;7.47;;;4.75;;
22064;SDS011;11197;53.110;8.468;2023-07-09T15:56:50;8.32;;;4.60;;
22064;SDS011;11197;53.110;8.468;2023-07-09T16:01:52;7.72;;;4.75;;
22064;SDS011;11197;53.110;8.468;2023-07-09T16:04:18;10.23;;;4.93;;
22064;SDS011;11197;53.110;8.468;2023-07-09T16:06:44;9.50;;;5.10;;
22064;SDS011;11197;53.110;8.468;2023-07-09T16:09:09;6.32;;;4.75;;
22064;SDS011;11197;53.110;8.468;2023-07-09T16:11:37;7.88;;;4.70;;
22064;SDS011;11197;53.110;8.468;2023-07-09T16:14:12;8.50;;;5.05;;
22064;SDS011;11197;53.110;8.468;2023-07-09T16:16:48;8.52;;;5.47;;
22064;SDS011;11197;53.110;8.468;2023-07-09T16:19:20;7.47;;;5.60;;
22064;SDS011;11197;53.110;8.468;2023-07-09T16:21:49;14.02;;;6.97;;
22064;SDS011;11197;53.110;8.468;2023-07-09T16:24:22;9.65;;;7.20;;
22064;SDS011;11197;53.110;8.468;2023-07-09T16:26:51;9.10;;;7.28;;
22064;SDS011;11197;53.110;8.468;2023-07-09T16:29:27;24.00;;;20.20;;
22064;SDS011;11197;53.110;8.468;2023-07-09T16:31:55;13.65;;;11.13;;
22064;SDS011;11197;53.110;8.468;2023-07-09T16:34:26;30.73;;;24.80;;
22064;SDS011;11197;53.110;8.468;2023-07-09T16:36:53;17.77;;;15.70;;
22064;SDS011;11197;53.110;8.468;2023-07-09T16:41:52;20.00;;;12.50;;
22064;SDS011;11197;53.110;8.468;2023-07-09T16:44:19;14.75;;;11.38;;
22064;SDS011;11197;53.110;8.468;2023-07-09T16:46:45;12.57;;;8.75;;
22064;SDS011;11197;53.110;8.468;2023-07-09T16:49:54;8.23;;;7.15;;
22064;SDS011;11197;53.110;8.468;2023-07-09T16:52:03;9.15;;;6.18;;
22064;SDS011;11197;53.110;8.468;2023-07-09T16:54:37;9.63;;;5.90;;
22064;SDS011;11197;53.110;8.468;2023-07-09T16:57:02;10.65;;;5.80;;